Data for 09/20/2016

Time Sea-Level Adjusted Pressure Absolute Pressure Temperature Relative Humidity Dew Point   
(mb) (inHg) (mb) (inHg) (C) (F) (%) (C) (F)
00:05 1020 30.12 849 25.07 11.4 52.5 51 1.6 34.8
00:10 1020 30.12 849 25.07 11.4 52.4 49 1.1 34
00:15 1020 30.12 850 25.1 11.5 52.8 50 1.4 34.5
00:20 1020 30.12 850 25.1 11.6 52.9 49 1.3 34.3
00:25 1020 30.12 850 25.1 11.7 53 48 1.2 34.2
00:30 1020 30.12 850 25.1 11.6 52.8 49 1.3 34.4
00:35 1020 30.12 850 25.1 11.4 52.6 50 1.3 34.4
00:40 1020 30.12 850 25.1 11.4 52.5 49 1 33.9
00:45 1020 30.12 850 25.1 11.5 52.6 50 1.4 34.5
00:50 1020 30.12 850 25.1 11.3 52.3 48 0.8 33.5
00:55 1020 30.12 849 25.07 11.4 52.6 46 0.4 32.8
01:00 1020 30.12 849 25.07 11.7 53 48 1.2 34.1
01:05 1020 30.12 849 25.07 11.6 52.9 48 1 33.8
01:10 1020 30.12 849 25.07 11.6 52.9 48 1.1 33.9
01:15 1020 30.12 849 25.07 11.7 53.1 45 0.3 32.5
01:20 1020 30.12 849 25.07 12.4 54.2 44 0.4 32.8
01:25 1020 30.12 849 25.07 12.4 54.3 45 0.9 33.7
01:30 1020 30.12 849 25.07 12 53.5 48 1.3 34.4
01:35 1020 30.12 849 25.07 11.5 52.7 49 1.3 34.3
01:40 1020 30.12 849 25.07 11.4 52.6 49 1.2 34.1
01:45 1020 30.12 849 25.07 11.3 52.3 49 1.1 33.9
01:50 1020 30.12 849 25.07 11 51.8 53 1.8 35.3
01:55 1020 30.12 849 25.07 10.7 51.2 52 1.1 34.1
02:00 1020 30.12 849 25.07 10.9 51.7 51 1.1 34.1
02:05 1020 30.12 849 25.07 11.1 52.1 49 0.9 33.6
02:10 1020 30.12 849 25.07 11.3 52.4 49 1 33.8
02:15 1020 30.12 850 25.1 11.4 52.5 48 0.9 33.6
02:20 1020 30.12 849 25.07 11.6 52.9 48 1 33.8
02:25 1020 30.12 849 25.07 11.6 52.8 49 1.3 34.4
02:30 1020 30.12 850 25.1 11.3 52.3 50 1.2 34.1
02:35 1020 30.12 849 25.07 11.7 53 46 0.6 33.1
02:40 1020 30.12 849 25.07 12.1 53.8 49 1.6 35
02:45 1021 30.15 850 25.1 12.1 53.9 49 1.8 35.2
02:50 1021 30.15 850 25.1 11.8 53.2 50 1.8 35.3
02:55 1021 30.15 850 25.1 11.7 53.1 51 2 35.5
03:00 1021 30.15 850 25.1 11.7 53.1 52 2.1 35.9
03:05 1020 30.12 850 25.1 11.3 52.4 54 2.4 36.4
03:10 1020 30.12 850 25.1 10.8 51.4 56 2.4 36.3
03:15 1020 30.12 850 25.1 10.4 50.7 57 2.3 36.1
03:20 1020 30.12 850 25.1 10.5 51 55 2 35.6
03:25 1020 30.12 850 25.1 10.9 51.5 54 2.1 35.7
03:30 1020 30.12 850 25.1 11 51.9 53 1.8 35.3
03:35 1021 30.15 850 25.1 11.2 52.2 52 1.7 35.1
03:40 1021 30.15 850 25.1 11.4 52.5 54 2.5 36.4
03:45 1021 30.15 850 25.1 11 51.8 52 1.6 35
03:50 1020 30.12 850 25.1 11.1 52 53 2 35.5
03:55 1020 30.12 850 25.1 11.3 52.3 51 1.6 34.8
04:00 1021 30.15 850 25.1 11.6 52.9 52 2.1 35.8
04:05 1021 30.15 850 25.1 11.5 52.7 52 2.1 35.8
04:10 1020 30.12 850 25.1 11.6 52.8 50 1.6 34.8
04:15 1020 30.12 850 25.1 12.1 53.7 49 1.8 35.3
04:20 1020 30.12 850 25.1 12.2 53.9 49 1.8 35.2
04:25 1021 30.15 850 25.1 12.5 54.5 48 1.9 35.4
04:30 1020 30.12 850 25.1 12.6 54.7 48 2.1 35.8
04:35 1020 30.12 849 25.07 12.7 54.8 49 2.3 36.1
04:40 1020 30.12 849 25.07 12.5 54.5 50 2.4 36.2
04:45 1020 30.12 850 25.1 12.3 54.2 51 2.5 36.4
04:50 1020 30.12 850 25.1 12.1 53.7 51 2.2 35.9
04:55 1020 30.12 849 25.07 12 53.6 53 2.8 37.1
05:00 1020 30.12 850 25.1 12.1 53.8 53 3 37.4
05:05 1020 30.12 850 25.1 11.7 53 57 3.6 38.4
05:10 1020 30.12 850 25.1 11.3 52.4 62 4.3 39.7
05:15 1020 30.12 849 25.07 11.5 52.7 53 2.4 36.3
05:20 1020 30.12 849 25.07 11.6 52.9 61 4.3 39.8
05:25 1020 30.12 849 25.07 10.8 51.5 62 3.9 39
05:30 1020 30.12 849 25.07 10.6 51 66 4.6 40.2
05:35 1020 30.12 850 25.1 10.4 50.7 62 3.5 38.3
05:40 1020 30.12 850 25.1 10.6 51 63 3.8 38.8
05:45 1020 30.12 850 25.1 11 51.7 57 2.8 37
05:50 1021 30.15 850 25.1 11.3 52.4 59 3.7 38.7
05:55 1021 30.15 850 25.1 11.5 52.6 62 4.4 39.9
06:00 1021 30.15 850 25.1 11.4 52.5 58 3.5 38.3
06:05 1021 30.15 850 25.1 11.5 52.6 58 3.6 38.5
06:10 1021 30.15 850 25.1 11.5 52.6 60 4 39.1
06:15 1021 30.15 850 25.1 11.2 52.1 63 4.3 39.8
06:20 1021 30.15 850 25.1 10.7 51.3 63 4.1 39.3
06:25 1021 30.15 850 25.1 10.4 50.7 65 4.2 39.5
06:30 1021 30.15 850 25.1 10.3 50.6 68 4.6 40.3
06:35 1021 30.15 850 25.1 10.2 50.3 68 4.5 40.2
06:40 1021 30.15 850 25.1 10.1 50.2 70 5 41
06:45 1021 30.15 850 25.1 9.9 49.8 70 4.7 40.4
06:50 1021 30.15 850 25.1 9.7 49.4 72 4.8 40.7
06:55 1020 30.12 850 25.1 9.6 49.2 72 4.7 40.5
07:00 1020 30.12 849 25.07 9.4 48.8 72 4.7 40.4
07:05 1020 30.12 849 25.07 9.5 49 69 4.2 39.5
07:10 1020 30.12 849 25.07 9.4 48.8 72 4.6 40.3
07:15 1020 30.12 849 25.07 9.3 48.8 72 4.5 40.1
07:20 1020 30.12 849 25.07 9.4 49 72 4.7 40.4
07:25 1020 30.12 850 25.1 9.6 49.2 71 4.6 40.3
07:30 1020 30.12 850 25.1 9.9 49.8 70 4.7 40.5
07:35 1020 30.12 850 25.1 9.8 49.7 71 4.9 40.8
07:40 1020 30.12 850 25.1 9.8 49.7 71 4.9 40.8
07:45 1020 30.12 849 25.07 9.8 49.6 71 4.8 40.6
07:50 1020 30.12 849 25.07 9.7 49.5 72 4.9 40.8
07:55 1020 30.12 849 25.07 9.8 49.7 72 5.1 41.2
08:00 1020 30.12 849 25.07 10.1 50.2 69 4.7 40.5
08:05 1020 30.12 849 25.07 10.4 50.6 69 4.9 40.8
08:10 1020 30.12 849 25.07 10.6 51 67 4.8 40.6
08:15 1020 30.12 849 25.07 10.8 51.4 67 4.9 40.8
08:20 1020 30.12 849 25.07 10.8 51.4 66 4.7 40.5
08:25 1020 30.12 849 25.07 10.9 51.7 65 4.7 40.5
08:30 1020 30.12 849 25.07 11.1 52 65 4.9 40.8
08:35 1020 30.12 849 25.07 11.5 52.7 65 5.1 41.2
08:40 1020 30.12 850 25.1 11.5 52.7 65 5.1 41.2
08:45 1020 30.12 850 25.1 11.6 53 61 4.5 40
08:50 1020 30.12 850 25.1 11.9 53.4 60 4.5 40.1
08:55 1020 30.12 850 25.1 12 53.6 60 4.6 40.3
09:00 1021 30.15 850 25.1 12.4 54.3 60 4.9 40.7
09:05 1020 30.12 850 25.1 12.5 54.6 60 5 41
09:10 1020 30.12 850 25.1 11.9 53.5 60 4.4 40
09:15 1020 30.12 850 25.1 11.8 53.2 59 4 39.2
09:20 1020 30.12 850 25.1 11.5 52.7 62 4.4 40
09:25 1020 30.12 850 25.1 11.4 52.5 59 3.8 38.9
09:30 1020 30.12 850 25.1 11.2 52.1 61 4.1 39.3
09:35 1020 30.12 850 25.1 11.6 52.8 61 4.3 39.7
09:40 1021 30.15 850 25.1 12.8 55 58 4.7 40.5
09:45 1021 30.15 850 25.1 13.2 55.8 55 4.6 40.2
09:50 1021 30.15 850 25.1 13 55.3 58 5.1 41.1
09:55 1021 30.15 850 25.1 12.7 54.9 59 5.1 41.2
10:00 1021 30.15 850 25.1 12.7 54.8 62 5.6 42
10:05 1021 30.15 850 25.1 12.8 55 61 5.6 42.1
10:10 1021 30.15 850 25.1 13.1 55.6 60 5.7 42.2
10:15 1021 30.15 850 25.1 13.1 55.5 60 5.6 42.1
10:20 1021 30.15 850 25.1 13.1 55.6 60 5.6 42
10:25 1020 30.12 850 25.1 13.2 55.7 59 5.4 41.8
10:30 1020 30.12 850 25.1 13 55.5 60 5.5 41.8
10:35 1020 30.12 850 25.1 13.1 55.6 60 5.5 42
10:40 1021 30.15 850 25.1 13.4 56 58 5.4 41.7
10:45 1021 30.15 850 25.1 13.5 56.3 58 5.4 41.7
10:50 1021 30.15 850 25.1 13.8 56.9 57 5.4 41.7
10:55 1020 30.12 850 25.1 14 57.2 56 5.4 41.7
11:00 1020 30.12 850 25.1 14.1 57.3 54 4.9 40.8
11:05 1021 30.15 850 25.1 13.3 56 57 4.9 40.9
11:10 1021 30.15 850 25.1 13.8 56.8 55 5 41
11:15 1021 30.15 850 25.1 14.4 58 53 4.9 40.9
11:20 1020 30.12 850 25.1 14.8 58.7 53 5.4 41.7
11:25 1020 30.12 850 25.1 14.8 58.6 52 5.2 41.3
11:30 1020 30.12 850 25.1 14.5 58.2 53 5.2 41.3
11:35 1020 30.12 850 25.1 14.5 58.2 52 4.8 40.6
11:40 1020 30.12 849 25.07 14.5 58.1 52 4.9 40.8
11:45 1020 30.12 849 25.07 14.4 57.9 52 4.6 40.3
11:50 1020 30.12 849 25.07 14.4 57.9 52 4.7 40.4
11:55 1020 30.12 849 25.07 14.7 58.5 50 4.4 39.9
12:00 1020 30.12 849 25.07 14.7 58.5 49 4.3 39.7
12:05 1020 30.12 849 25.07 15 59 48 4.1 39.3
12:10 1020 30.12 849 25.07 15.3 59.5 48 4.5 40.1
12:15 1020 30.12 849 25.07 15.2 59.3 48 4.5 40.1
12:20 1020 30.12 849 25.07 15.3 59.5 47 4.1 39.4
12:25 1020 30.12 849 25.07 15.5 59.9 47 4.5 40
12:30 1020 30.12 849 25.07 15.2 59.3 49 4.6 40.2
12:35 1020 30.12 849 25.07 15.3 59.5 48 4.3 39.8
12:40 1020 30.12 849 25.07 15 58.9 49 4.3 39.8
12:45 1020 30.12 849 25.07 15.4 59.8 46 4 39.2
12:50 1020 30.12 849 25.07 16.1 61 44 4 39.3
12:55 1020 30.12 849 25.07 16.2 61.1 44 3.9 39.1
13:00 1020 30.12 849 25.07 16.1 61 44 4 39.2
13:05 1020 30.12 849 25.07 16.2 61.2 43 3.8 38.9
13:10 1020 30.12 849 25.07 16 60.8 45 4.2 39.5
13:15 1020 30.12 849 25.07 16.1 61 44 3.9 39.1
13:20 1020 30.12 849 25.07 16 60.8 44 4 39.2
13:25 1020 30.12 849 25.07 15.8 60.4 44 3.6 38.4
13:30 1020 30.12 849 25.07 15.9 60.7 43 3.6 38.5
13:35 1020 30.12 849 25.07 16.1 60.9 43 3.6 38.4
13:40 1020 30.12 849 25.07 16.1 60.9 42 3.3 38
13:45 1020 30.12 849 25.07 15.7 60.3 44 3.7 38.7
13:50 1020 30.12 849 25.07 15.7 60.2 46 4.1 39.4
13:55 1019 30.09 849 25.07 15.9 60.5 43 3.5 38.2
14:00 1019 30.09 849 25.07 16.4 61.6 42 3.6 38.4
14:05 1020 30.12 849 25.07 16.8 62.3 41 3.4 38.2
14:10 1020 30.12 849 25.07 16.4 61.6 43 4 39.2
14:15 1019 30.09 849 25.07 16.3 61.3 43 3.6 38.6
14:20 1019 30.09 849 25.07 16.5 61.7 43 3.8 38.9
14:25 1019 30.09 848 25.04 16.6 61.9 41 3.5 38.3
14:30 1019 30.09 848 25.04 16.4 61.5 43 4 39.2
14:35 1019 30.09 848 25.04 16.1 60.9 43 3.5 38.3
14:40 1019 30.09 848 25.04 16.6 61.8 42 3.8 38.8
14:45 1019 30.09 848 25.04 16.8 62.2 43 4.3 39.7
14:50 1019 30.09 848 25.04 16.9 62.3 42 4.1 39.4
14:55 1019 30.09 848 25.04 16.8 62.3 43 4.3 39.8
15:00 1019 30.09 848 25.04 16.4 61.4 44 4.1 39.4
15:05 1019 30.09 848 25.04 15.9 60.6 44 3.8 38.8
15:10 1019 30.09 848 25.04 16.1 61 44 4.1 39.3
15:15 1019 30.09 848 25.04 16.5 61.8 44 4.4 39.9
15:20 1019 30.09 848 25.04 17.3 63.1 43 4.7 40.5
15:25 1019 30.09 848 25.04 17.8 64 39 3.7 38.6
15:30 1019 30.09 848 25.04 17.8 64.1 40 4.2 39.6
15:35 1019 30.09 848 25.04 17.6 63.7 43 4.9 40.8
15:40 1019 30.09 848 25.04 17.9 64.1 40 4.2 39.5
15:45 1019 30.09 848 25.04 17.4 63.2 43 4.8 40.6
15:50 1019 30.09 848 25.04 17.1 62.8 43 4.5 40.2
15:55 1019 30.09 848 25.04 16.9 62.3 45 4.8 40.7
16:00 1019 30.09 848 25.04 16.6 62 47 5.3 41.6
16:05 1019 30.09 848 25.04 16.7 62.1 44 4.4 40
16:10 1019 30.09 848 25.04 17.2 63 44 4.9 40.8
16:15 1019 30.09 848 25.04 16.9 62.3 46 5.2 41.3
16:20 1019 30.09 848 25.04 16.7 62 45 4.9 40.9
16:25 1019 30.09 848 25.04 17 62.5 46 5.2 41.4
16:30 1019 30.09 848 25.04 17.1 62.8 45 5.3 41.5
16:35 1019 30.09 848 25.04 17.1 62.7 46 5.5 41.9
16:40 1019 30.09 848 25.04 16.8 62.3 46 5.2 41.4
16:45 1018 30.06 848 25.04 17 62.6 46 5.3 41.5
16:50 1018 30.06 848 25.04 17.4 63.4 45 5.6 42
16:55 1018 30.06 847 25.01 17.7 63.9 44 5.6 42.1
17:00 1018 30.06 847 25.01 17.6 63.6 46 5.8 42.5
17:05 1018 30.06 848 25.04 17.3 63.1 46 5.7 42.3
17:10 1018 30.06 848 25.04 17.4 63.3 45 5.5 41.8
17:15 1018 30.06 847 25.01 17.3 63.2 46 5.7 42.3
17:20 1018 30.06 848 25.04 17 62.7 45 5.2 41.4
17:25 1019 30.09 848 25.04 17 62.6 45 5.2 41.3
17:30 1019 30.09 848 25.04 17.1 62.7 46 5.6 42
17:35 1019 30.09 848 25.04 17 62.6 48 6.2 43.1
17:40 1019 30.09 848 25.04 16.8 62.2 47 5.4 41.7
17:45 1019 30.09 848 25.04 16.4 61.5 49 5.7 42.3
17:50 1019 30.09 848 25.04 16.3 61.3 50 6 42.8
17:55 1019 30.09 848 25.04 16.7 62 49 6.1 42.9
18:00 1019 30.09 848 25.04 16.7 62 52 6.9 44.5
18:05 1019 30.09 848 25.04 16.4 61.4 53 6.9 44.5
18:10 1019 30.09 848 25.04 16.2 61.2 52 6.5 43.6
18:15 1019 30.09 848 25.04 16.1 61 53 6.6 43.9
18:20 1019 30.09 848 25.04 16.1 60.9 54 6.8 44.3
18:25 1019 30.09 848 25.04 15.9 60.5 54 6.7 44.1
18:30 1018 30.06 848 25.04 15.6 60 55 6.7 44.1
18:35 1018 30.06 847 25.01 15.4 59.8 55 6.6 43.9
18:40 1018 30.06 847 25.01 15.3 59.5 55 6.4 43.6
18:45 1018 30.06 848 25.04 15.2 59.4 55 6.4 43.4
18:50 1019 30.09 849 25.07 15.2 59.3 54 5.9 42.6
18:55 1020 30.12 849 25.07 15.2 59.4 53 5.8 42.4
19:00 1020 30.12 849 25.07 15 58.9 60 7.2 45
19:05 1019 30.09 848 25.04 14.2 57.6 64 7.5 45.5
19:10 1019 30.09 848 25.04 13.6 56.5 63 6.7 44
19:15 1019 30.09 848 25.04 13.4 56 64 6.8 44.2
19:20 1019 30.09 848 25.04 13.2 55.8 63 6.5 43.6
19:25 1019 30.09 848 25.04 13.1 55.6 66 6.9 44.5
19:30 1019 30.09 848 25.04 12.9 55.2 65 6.6 43.8
19:35 1019 30.09 849 25.07 12.8 55.1 64 6.2 43.2
19:40 1019 30.09 849 25.07 13 55.4 63 6.3 43.3
19:45 1019 30.09 848 25.04 13.1 55.6 62 6.2 43.1
19:50 1019 30.09 848 25.04 13 55.5 64 6.4 43.5
19:55 1019 30.09 848 25.04 12.8 55.1 64 6.2 43.1
20:00 1019 30.09 848 25.04 12.8 55.1 63 6 42.9
20:05 1019 30.09 849 25.07 12.9 55.2 61 5.5 41.9
20:10 1020 30.12 849 25.07 13 55.3 60 5.5 42
20:15 1020 30.12 849 25.07 12.9 55.2 61 5.6 42.1
20:20 1020 30.12 849 25.07 12.8 55.1 62 5.8 42.4
20:25 1020 30.12 849 25.07 12.8 55 63 5.9 42.7
20:30 1021 30.15 850 25.1 12.8 55 61 5.5 42
20:35 1020 30.12 850 25.1 12.9 55.3 61 5.6 42.1
20:40 1020 30.12 850 25.1 12.9 55.2 62 5.7 42.3
20:45 1021 30.15 850 25.1 12.9 55.1 62 5.9 42.5
20:50 1021 30.15 850 25.1 12.8 55.1 62 5.8 42.4
20:55 1021 30.15 850 25.1 12.8 55.1 61 5.7 42.2
21:00 1020 30.12 849 25.07 12.9 55.1 61 5.6 42
21:05 1020 30.12 849 25.07 12.8 55 64 6.2 43.1
21:10 1020 30.12 850 25.1 12.4 54.3 65 6 42.7
21:15 1021 30.15 850 25.1 12.3 54.2 66 6.2 43.1
21:20 1021 30.15 850 25.1 12.4 54.3 66 6.2 43.1
21:25 1021 30.15 850 25.1 12.3 54.2 66 6.1 43.1
21:30 1021 30.15 850 25.1 12.1 53.8 67 6.3 43.3
21:35 1020 30.12 850 25.1 11.8 53.3 68 6.2 43.1
21:40 1020 30.12 849 25.07 11.8 53.3 66 5.7 42.2
21:45 1020 30.12 849 25.07 11.9 53.5 66 5.8 42.4
21:50 1020 30.12 850 25.1 11.9 53.4 66 5.8 42.4
21:55 1021 30.15 850 25.1 11.8 53.2 66 5.7 42.3
22:00 1021 30.15 850 25.1 11.6 52.9 68 5.9 42.6
22:05 1021 30.15 850 25.1 11.5 52.7 67 5.7 42.3
22:10 1021 30.15 850 25.1 11.6 52.9 66 5.5 41.9
22:15 1021 30.15 851 25.13 11.9 53.3 62 4.8 40.7
22:20 1021 30.15 851 25.13 12.1 53.8 62 5.1 41.2
22:25 1021 30.15 851 25.13 12 53.7 64 5.5 41.8
22:30 1021 30.15 851 25.13 11.8 53.2 65 5.4 41.7
22:35 1021 30.15 850 25.1 11.6 52.8 67 5.6 42.1
22:40 1021 30.15 850 25.1 11.4 52.4 69 5.8 42.5
22:45 1021 30.15 850 25.1 11.1 52 71 6.2 43.1
22:50 1021 30.15 850 25.1 10.9 51.6 71 5.8 42.4
22:55 1021 30.15 850 25.1 10.8 51.4 69 5.3 41.6
23:00 1021 30.15 850 25.1 10.7 51.3 70 5.5 41.9
23:05 1020 30.12 850 25.1 10.6 51 69 5.1 41.2
23:10 1020 30.12 849 25.07 10.6 51 69 5.2 41.3
23:15 1020 30.12 849 25.07 10.5 50.8 68 4.9 40.9
23:20 1020 30.12 849 25.07 10.5 50.8 68 4.8 40.7
23:25 1020 30.12 849 25.07 10.5 50.9 67 4.7 40.5
23:30 1020 30.12 849 25.07 10.5 50.8 66 4.4 40
23:35 1020 30.12 849 25.07 10.7 51.2 64 4.2 39.5
23:40 1020 30.12 849 25.07 10.9 51.5 63 4 39.3
23:45 1020 30.12 849 25.07 10.9 51.6 62 3.9 39
23:50 1020 30.12 849 25.07 10.7 51.3 63 4.1 39.3
23:55 1020 30.12 849 25.07 10.5 51 62 3.5 38.4
24:00 1020 30.12 849 25.07 10.4 50.8 64 3.9 39.1